Edna St. Vincent Millay

(22 February 1892 – 19 October 1950 / Rockland / Maine / United States)

Stats

» Click to list general statistics » OR, select a date :

General Statistics

Visitors of the poet

Number of visitors of the poet’s mainpage in PoemHunter.Com

Attention : Numbers in this table does not indicate the total hits of poems of the poet, but indicates the hits of the poet’s main page.

Date Hits
05/03/2016 Tuesday 681
65%
05/02/2016 Monday 707
67%
05/01/2016 Sunday 803
77%
04/30/2016 Saturday 518
49%
04/29/2016 Friday 586
56%
04/28/2016 Thursday 784
75%
04/27/2016 Wednesday 596
57%
04/26/2016 Tuesday 647
62%
04/25/2016 Monday 741
71%
04/24/2016 Sunday 812
78%
04/23/2016 Saturday 590
56%
04/22/2016 Friday 688
66%
04/21/2016 Thursday 743
71%
04/20/2016 Wednesday 656
63%
04/19/2016 Tuesday 734
70%
04/18/2016 Monday 648
62%
04/17/2016 Sunday 1040
100%
04/16/2016 Saturday 716
68%
04/15/2016 Friday 744
71%
04/14/2016 Thursday 1034
99%

Reader rating & num.of MyPoemList’s

Click the captions of columns to change the order.

# Poem Title Submit Date Reader Rating Num.of MyPoemList’s
Rating Num.R.
1 Inert Perfection 03/11/2016 -- 0 0
2 I will put Chaos into fourteen lines 10/24/2015 -- 0 1
3 The Prisoner 07/30/2015 -- 0 0
4 She Is Overheard Singing 06/18/2015 -- 0 1
5 The Courage That My Mother Had 01/03/2015 -- 0 1
6 Childhood Is The Kingdom Where Nobody Dies 11/28/2014 -- 0 1
7 To Kathleen 01/01/2004 5.6 58 4
8 Euclid Alone 01/01/2004 5.7 46 16
9 Grown-Up 01/01/2004 6.3 26 31
10 The Betrothal 01/01/2004 5.7 38 14
11 The Blue Flag In The Bog 01/01/2004 5.9 34 4
12 [four Sonnets (1922)] 01/01/2004 5.3 107 30
13 When I Too Long Have Looked Upon Your Face 01/01/2004 6.4 39 32
14 Bluebeard 01/01/2004 5.5 80 43
15 And You As Well Must Die, Belovèd Dust 01/01/2004 6.1 78 53
16 Thursday 01/01/2004 5.3 76 11
17 To A Young Poet 01/01/2004 5.9 62 9
18 If I Should Learn, In Some Quite Casual Way 01/01/2004 6.4 40 36
19 Lines For A Grave-Stone 01/01/2004 6.1 37 8
20 Sonnet Iii: Mindful Of You The Sodden Earth 01/01/2004 5.6 42 5
21 Sonnet Iv: Not In This Chamber 01/01/2004 5.5 42 4
22 I Shall Go Back 01/01/2004 5.5 39 26
23 No Rose That In A Garden Ever Grew 01/01/2004 5.5 36 12
24 We Talk Of Taxes... 01/01/2004 6.2 28 4
25 I, Being Born A Woman And Distressed 01/01/2004 6.7 33 54
26 Sonnet V: If I Should Learn 01/01/2004 5.4 49 4
27 Recuerdo 01/01/2004 6.5 44 20
28 Humoresque 01/01/2004 5.6 30 16
29 I Do But Ask That You Be Always Fair 01/01/2004 5.5 42 29
30 Sonnet Ii: Time Does Not Bring Relief 01/01/2004 6.0 47 25
31 Sonnets (1923) 01/01/2004 5.3 49 6
32 Oh, My Belovèd, Have You Thought Of This 01/01/2004 6.0 36 13
33 Only Until This Cigarette Is Ended 01/01/2004 5.5 36 45
34 Sonnet Vi: This Door You Might Not Open 01/01/2004 5.9 49 12
35 Sonnet I: Thou Art Not Lovelier Than Lilacs 01/01/2004 5.6 43 12
36 Counting-Out Rhyme 01/01/2004 6.1 99 23
37 I Know 100 Ways To Die 07/07/2003 7.8 4 28
38 Chorus 01/13/2003 5.8 82 23
39 Sonnet (Women Have Loved Before As I Love Now) 01/13/2003 5.9 44 18
40 Inland 01/13/2003 5.5 36 8
41 The Wood Road 01/13/2003 5.8 44 6
42 Fontaine, Je Ne Boirai Pas De Ton Eau! 01/13/2003 5.5 31 8
43 Ebb 01/13/2003 5.5 81 25
44 Second Fig 01/13/2003 6.0 48 27
45 Wraith 01/13/2003 5.7 30 12
46 I Dreamed I Moved Among The Elysian Fields 01/13/2003 5.9 68 25
47 Memorial To D.C. 01/13/2003 5.8 32 2
48 The Plaid Dress 01/13/2003 5.8 46 10
49 Interim 01/13/2003 6.1 36 14
50 Midnight Oil 01/13/2003 6.0 36 12
51 Love Is Not All 01/13/2003 7.5 81 177
52 Portrait By A Neighbour 01/13/2003 5.9 35 9
53 Rosemary 01/13/2003 5.6 45 6
54 Not Even My Pride Shall Suffer Much 01/13/2003 5.7 38 9
55 The Leaf And The Tree 01/13/2003 5.9 60 17
56 Kin To Sorrow 01/13/2003 5.5 34 21
57 Lines Written In Recapitulation 01/13/2003 6.2 49 4
58 City Trees 01/13/2003 5.8 135 59
59 To A Poet That Died Young 01/13/2003 5.8 43 7
60 The Shroud 01/13/2003 5.5 57 5
61 Night Is My Sister, And How Deep In Love 01/13/2003 5.8 36 27
62 Sorrow 01/13/2003 5.7 53 26
63 Underground System 01/13/2003 5.9 35 3
64 Apostrophe To Man 01/13/2003 5.9 119 32
65 The Curse 01/13/2003 5.9 68 13
66 Two Sonnets In Memory 01/13/2003 5.9 32 6
67 Scrub 01/13/2003 5.8 43 5
68 Dirge Without Music 01/13/2003 6.5 101 68
69 Spring 01/13/2003 6.2 48 22
70 When We Are Old And These Rejoicing Veins 01/13/2003 5.7 35 14
71 Sonnets 09: Let You Not Say Of Me When I Am Old 01/13/2003 5.6 51 9
72 The Spring And The Fall 01/13/2003 8.0 111 68
73 Sonnets 11: As To Some Lovely Temple, Tenantless 01/13/2003 5.7 44 3
74 Sweet Love, Sweet Thorn, When Lightly To My Heart 01/13/2003 5.6 46 18
75 The Little Hill 01/13/2003 5.8 54 7
76 Wild Swans 01/13/2003 6.1 34 14
77 Think Not, Not For A Moment Let Your Mind 01/13/2003 5.7 55 14
78 Sonnets 12: Cherish You Then The Hope I Shall Forget 01/13/2003 5.5 61 3
79 The Penitent 01/13/2003 5.6 30 11
80 The Goose-Girl 01/13/2003 5.8 69 9
81 Sonnets From An Ungrafted Tree 01/13/2003 5.7 46 4
82 Alms 01/13/2003 5.7 93 27
83 Not In A Silver Casket Cool With Pearls 01/13/2003 5.9 38 20
84 Doubt No More That Oberon 01/13/2003 5.6 66 13
85 Justice Denied In Massachusetts 01/13/2003 5.9 34 8
86 Menses 01/13/2003 5.6 33 6
87 The Fledgling 01/13/2003 5.4 49 2
88 Sonnets 04: Only Until This Cigarette Is Ended 01/13/2003 5.9 35 12
89 I Know I Am But Summer To Your Heart 01/13/2003 6.5 41 48
90 Mist In The Valley 01/13/2003 5.4 33 15
91 The Concert 01/13/2003 5.5 71 7
92 The Singing-Woman From The Wood's Edge 01/13/2003 5.9 45 8
93 The Suicide 01/13/2003 5.5 58 19
94 The True Encounter 01/13/2003 5.9 55 6
95 Whereas At Morning In A Jeweled Crown 01/13/2003 5.5 43 7
96 Weeds 01/13/2003 8.0 1 8
97 The Bean-Stalk 01/13/2003 5.6 58 5
98 Sonnet 03: Mindful Of You The Sodden Earth In Spring 01/13/2003 5.4 42 5
99 The Ballad Of The Harp-Weaver 01/13/2003 5.9 61 29
100 The Blue-Flag In The Bog 01/13/2003 5.3 63 2
101 Elegy 01/13/2003 5.3 42 8
102 Lament 01/13/2003 6.5 40 26
103 Elegy Before Death 01/13/2003 6.1 31 14
104 Song Of A Second April 01/13/2003 6.0 47 9
105 The Fawn 01/13/2003 5.8 66 5
106 A Visit To The Asylum 01/13/2003 6.1 100 59
107 Autumn Daybreak 01/13/2003 5.7 132 44
108 Being Young And Green 01/13/2003 5.6 86 33
109 Dirge 01/13/2003 5.6 68 11
110 Ashes Of Life 01/13/2003 6.0 88 67
111 The Little Ghost 01/13/2003 6.1 38 16
112 Blight 01/13/2003 5.9 96 22
113 Intention To Escape From Him 01/13/2003 6.3 35 21
114 Sonnets 07: When I Too Long Have Looked Upon Your Face 01/13/2003 5.9 44 24
115 Make Bright The Arrows 01/13/2003 5.7 38 4
116 If Still Your Orchards Bear 01/13/2003 5.8 33 7
117 Low-Tide 01/13/2003 4.8 45 14
118 Here Is A Wound That Never Will Heal, I Know 01/13/2003 6.0 57 58
119 I Know The Face Of Falsehood And Her Tongue 01/13/2003 5.6 44 8
120 Witch-Wife 01/13/2003 5.5 40 25
121 Daphne 01/13/2003 5.7 94 33
122 Eel-Grass 01/13/2003 6.0 33 11
123 Epitaph 01/13/2003 6.1 38 17
124 Journey 01/13/2003 6.3 27 17
125 What Lips My Lips Have Kissed, And Where, And Why (Sonnet Xliii) 01/13/2003 7.9 127 384
126 The Dream 01/13/2003 5.8 62 27
127 Sonnet 06: Bluebeard 01/13/2003 6.1 50 9
128 Burial 01/13/2003 5.4 90 30
129 Assault 01/13/2003 5.7 125 20
130 Modern Declaration 01/13/2003 5.6 35 9
131 The Death Of Autumn 01/13/2003 5.9 60 10
132 Sonnet 05: If I Should Learn, In Some Quite Casual Way 01/13/2003 5.9 48 18
133 Sonnets 06: No Rose That In A Garden Ever Grew 01/13/2003 5.6 42 7
134 Three Songs Of Shattering 01/13/2003 5.9 38 9
135 To Those Without Pity 01/13/2003 5.2 40 10
136 Sonnets 05: Once More Into My Arid Days Like Dew 01/13/2003 5.7 32 8
137 Sonnets 10: Oh, My Beloved, Have You Thought Of This 01/13/2003 5.9 45 6
138 The Philosopher 01/13/2003 5.6 45 23
139 Sonnets 08: And You As Well Must Die, Beloved Dust 01/13/2003 5.5 50 7
140 My Most Distinguished Guest And Learned Friend 01/13/2003 5.4 35 9
141 Sonnets 01: We Talk Of Taxes, And I Call You Friend 01/13/2003 5.4 48 9
142 Pastoral 01/13/2003 5.1 35 5
143 Souvenir 01/13/2003 5.6 46 11
144 Sonnet 01: Thou Art Not Lovelier Than Lilacs,&Mdash;No 01/13/2003 5.8 45 15
145 Sonnet 02: Time Does Not Bring Relief; You All Have Lied 01/13/2003 6.5 66 67
146 Exiled 01/13/2003 6.5 44 22
147 To The Not Impossible Him 01/13/2003 5.4 53 14
148 The Unexplorer 01/13/2003 6.0 50 8
149 Passer Mortuus Est 01/13/2003 5.8 46 10
150 Pity Me Not Because The Light Of Day 01/13/2003 6.3 38 32
151 An Ancient Gesture 01/13/2003 6.0 108 49
152 The Return From Town 01/13/2003 5.5 47 6
153 Prayer To Persephone 01/13/2003 5.5 33 18
154 The Poet And His Book 01/13/2003 6.2 40 11
155 Ode To Silence 01/13/2003 5.9 34 15
156 Indifference 01/13/2003 5.8 33 11
157 Tavern 01/13/2003 5.6 48 8
158 Sonnet 04: Not In This Chamber Only At My Birth 01/13/2003 5.6 44 4
159 Sonnets 02: Into The Golden Vessel Of Great Song 01/13/2003 5.3 55 3
160 Conscientious Objector 01/13/2003 5.5 180 73
161 Sonnets 03: Not With Libations, But With Shouts And Laughter 01/13/2003 5.8 56 6
162 Feast 01/13/2003 6.0 50 14
163 Invocation To The Muses 01/13/2003 5.8 38 4
164 Mariposa 01/13/2003 6.6 51 13
165 Departure 01/13/2003 5.5 88 41
166 And Do You Think That Love Itself 01/13/2003 6.1 115 63
167 Oh, Oh, You Will Be Sorry 01/13/2003 6.5 39 34
168 Travel 01/13/2003 6.0 41 17
169 The Snow Storm 01/13/2003 5.8 75 7
170 First Fig 01/13/2003 7.5 75 93
171 God's World 01/04/2003 6.1 70 38
172 Afternoon On A Hill 01/04/2003 6.6 119 78
173 When The Year Grows Old 01/04/2003 5.7 38 17
174 Renascence 01/04/2003 7.0 31 61
[Hata Bildir]